• Join FlightAware (Why Join?)
  • Login
  • US Flag 
04:29AM EDT


 

Airport Tracker/Info


-or-


 

Live Flight TrackerFlight Track Log ✈ GTH403 ✈ 16-May-2012 ✈ KTEB - KPBI

Flight Track Log - Related Links

Times and Time Zones

All times are in EDT time to prevent confusion due to time zone crossing. See the GTH403 flight status page for this flight to view local times or setup timezone preferences in your user account.

Time Position Orientation Groundspeed Altitude Reporting Facility
EDT Latitude Longitude Course Direction KTS MPH feet Rate Location/Type
10:15AM 40.8167 -74.1167 210° Southwest 197 227 1,700  Level New York TRACON
10:17AM 40.6992 -74.2064 199° South 258 297 7,900 3,300 Climbing New York Center
10:18AM 40.6275 -74.2383 196° South 276 318 11,900 2,880 Climbing New York Center
10:19AM 40.5408 -74.2719 160° South 306 352 13,600 2,580 Climbing New York Center
10:20AM 40.4239 -74.2169 163° South 352 405 17,700 2,880 Climbing New York Center
10:21AM 40.3250 -74.1767 189° South 371 427 20,100 2,520 Climbing New York Center
10:23AM 40.1244 -74.2186 195° South 349 402 25,200 2,340 Climbing Washington Center
10:24AM 40.0206 -74.2558 212° Southwest 367 422 27,100 2,040 Climbing Washington Center
10:25AM 39.9278 -74.3308 214° Southwest 387 445 29,400 2,340 Climbing Washington Center
10:26AM 39.8411 -74.4081 222° Southwest 387 445 31,800 2,040 Climbing Washington Center
10:27AM 39.7708 -74.4900 226° Southwest 387 445 33,500 1,860 Climbing Washington Center
10:28AM 39.6947 -74.5911 226° Southwest 387 445 35,600 1,560 Climbing Washington Center
10:31AM 39.4842 -74.8708 209° Southwest 374 430 39,900 480 Climbing Washington Center
10:37AM 38.9044 -75.2822 198° South 421 484 40,000  Climbing Washington Center
10:42AM 38.3525 -75.5069 202° Southwest 421 484 40,000  Level Washington Center
10:43AM 38.2356 -75.5681 203° Southwest 421 484 40,000  Level Washington Center
10:44AM 38.1314 -75.6233 205° Southwest 427 491 40,000  Level Washington Center
10:45AM 38.0292 -75.6839 204° Southwest 415 478 40,000  Level Washington Center
10:46AM 37.9250 -75.7419 203° Southwest 409 471 40,000  Level Washington Center
10:47AM 37.8206 -75.7969 202° Southwest 409 471 40,000  Level Washington Center
10:48AM 37.7119 -75.8517 204° Southwest 414 476 40,000  Level Washington Center
10:49AM 37.6075 -75.9092 204° Southwest 414 476 40,000  Level Washington Center
10:50AM 37.5011 -75.9689 203° Southwest 414 476 40,000  Level Washington Center
10:51AM 37.3922 -76.0258 202° Southwest 419 482 40,000  Level Washington Center
10:52AM 37.2858 -76.0800 203° Southwest 414 476 40,000  Level Washington Center
10:53AM 37.1811 -76.1367 200° South 414 476 40,000  Level Washington Center
10:54AM 37.0683 -76.1881 203° Southwest 420 483 40,000  Level Washington Center
10:55AM 36.9617 -76.2444 202° Southwest 420 483 40,000  Level Washington Center
10:56AM 36.8569 -76.2981 203° Southwest 415 478 40,000  Level Washington Center
10:57AM 36.7503 -76.3542 205° Southwest 415 478 40,000  Level Washington Center
10:58AM 36.6539 -76.4100 202° Southwest 415 478 40,000  Level Washington Center
10:59AM 36.5492 -76.4633 202° Southwest 415 478 40,000  Level Washington Center
11:00AM 36.4425 -76.5164 202° Southwest 415 478 40,000  Level Washington Center
11:01AM 36.3378 -76.5692 203° Southwest 415 478 40,000  Level Washington Center
11:02AM 36.2308 -76.6244 203° Southwest 415 478 40,000  Level Washington Center
11:03AM 36.1261 -76.6797 202° Southwest 415 478 40,000  Level Washington Center
11:04AM 36.0169 -76.7347 201° Southwest 415 478 40,000  Level Washington Center
11:05AM 35.9122 -76.7844 203° Southwest 415 478 40,000  Level Washington Center
11:06AM 35.8075 -76.8392 203° Southwest 415 478 40,000  Level Washington Center
11:07AM 35.7003 -76.8939 202° Southwest 415 478 40,000  Level Washington Center
11:08AM 35.5828 -76.9533 202° Southwest 420 483 40,000  Level Washington Center
11:09AM 35.4883 -77.0003 201° Southwest 412 474 40,000  Level Washington Center
11:10AM 35.3794 -77.0517 203° Southwest 418 481 40,000  Level Washington Center
11:11AM 35.2744 -77.1058 202° Southwest 412 474 40,000  Level Washington Center
11:12AM 35.1653 -77.1597 210° Southwest 418 481 40,000  Level Washington Center
11:13AM 35.0642 -77.2314 209° Southwest 416 479 40,000  Level Washington Center
11:14AM 34.9567 -77.3053 207° Southwest 416 479 40,000  Level Washington Center
11:15AM 34.8533 -77.3689 199° South 416 479 40,000  Level Washington Center
11:16AM 34.7464 -77.4144 195° South 411 473 40,000  Level Washington Center
11:17AM 34.6331 -77.4522 195° South 416 479 40,000  Level Washington Center
11:18AM 34.5219 -77.4875 195° South 421 484 40,000  Level Washington Center
11:19AM 34.4128 -77.5228 195° South 421 484 40,000  Level Washington Center
11:20AM 34.3017 -77.5581 194° South 421 484 40,000  Level Washington Center
11:21AM 34.1886 -77.5931 195° South 421 484 40,000  Level Washington Center
11:22AM 34.0297 -77.6458 194° South 428 493 40,000  Level Jacksonville Center
11:23AM 33.9186 -77.6800 194° South 415 478 40,000  Level Jacksonville Center
11:24AM 33.8114 -77.7114 196° South 410 472 40,000  Level Jacksonville Center
11:25AM 33.7022 -77.7478 196° South 415 478 40,000  Level Jacksonville Center
11:26AM 33.6036 -77.7808 194° South 408 470 40,000  Level Jacksonville Center
11:27AM 33.4922 -77.8147 195° South 415 478 40,000  Level Jacksonville Center
11:28AM 33.3831 -77.8508 195° South 415 478 40,000  Level Jacksonville Center
11:29AM 33.2717 -77.8869 196° South 415 478 40,000  Level Jacksonville Center
11:30AM 33.1647 -77.9225 194° South 415 478 40,000  Level Jacksonville Center
11:31AM 33.0533 -77.9561 195° South 415 478 40,000  Level Jacksonville Center
11:34AM 32.7192 -78.0608 196° South 415 478 40,000  Level Jacksonville Center
11:35AM 32.6058 -78.0989 194° South 415 478 40,000  Level Jacksonville Center
11:36AM 32.4944 -78.1319 194° South 415 478 40,000  Level Jacksonville Center
11:40AM 32.0425 -78.2681 195° South 404 465 40,000  Level Jacksonville Center
11:45AM 31.4808 -78.4422 194° South 434 499 40,000  Level Jacksonville Center
11:46AM 31.3672 -78.4744 195° South 418 481 40,000  Level Jacksonville Center
11:47AM 31.2558 -78.5089 194° South 401 461 40,000  Level Jacksonville Center
11:48AM 31.1442 -78.5406 195° South 417 480 40,000  Level Jacksonville Center
11:49AM 31.0306 -78.5750 193° South 420 483 40,000  Level Jacksonville Center
11:50AM 30.9125 -78.6069 197° South 449 517 40,000  Level Jacksonville Center
11:51AM 30.8094 -78.6431 193° South 432 497 40,000  Level Jacksonville Center
11:52AM 30.6936 -78.6750 195° South 426 490 40,000  Level Jacksonville Center
11:53AM 30.5800 -78.7114 198° South 420 483 40,000  Level Jacksonville Center
11:56AM 30.3169 -78.8092 197° South 405 466 40,000  Level Miami Center
11:57AM 30.2061 -78.8478 197° South 399 459 40,000  Level Miami Center
11:58AM 30.1033 -78.8844 198° South 398 458 40,000 -600 Level Miami Center
11:59AM 29.9964 -78.9253 197° South 403 464 38,800 -1,440 Descending Miami Center
12:00PM 29.8769 -78.9661 195° South 416 479 37,200 -1,800 Descending Miami Center
12:01PM 29.7681 -79.0000 189° South 421 484 35,300 -1,620 Descending Miami Center
12:02PM 29.6508 -79.0214 191° South 429 494 34,000 -660 Descending Miami Center
12:03PM 29.5275 -79.0478 200° South 436 502 34,000 -780 Level Miami Center
12:04PM 29.4225 -79.0908 214° Southwest 424 488 32,500 -1,680 Descending Miami Center
12:05PM 29.3233 -79.1672 215° Southwest 414 476 30,700 -1,920 Descending Miami Center
12:06PM 29.2281 -79.2439 215° Southwest 433 498 28,700 -1,800 Descending Miami Center
12:07PM 29.1414 -79.3133 215° Southwest 444 511 27,100 -1,380 Descending Miami Center
12:08PM 29.0336 -79.4011 215° Southwest 424 488 26,000 -600 Descending Miami Center
12:09PM 28.9383 -79.4772 215° Southwest 414 476 26,000  Level Miami Center
12:10PM 28.8431 -79.5531 214° Southwest 414 476 26,000  Level Miami Center
12:11PM 28.7561 -79.6194 215° Southwest 420 483 26,000  Level Miami Center
12:12PM 28.6522 -79.7022 215° Southwest 420 483 26,000  Level Miami Center
12:13PM 28.5569 -79.7778 215° Southwest 425 489 26,000 -240 Level Miami Center
12:14PM 28.4614 -79.8531 215° Southwest 430 495 25,600 -1,020 Descending Miami Center
12:15PM 28.3767 -79.9194 213° Southwest 430 495 24,000 -1,140 Descending Miami Center
12:16PM 28.2811 -79.9897 212° Southwest 424 488 23,400 -1,440 Descending Miami Center
12:17PM 28.1794 -80.0625 192° South 408 470 21,200 -2,100 Descending Miami Center
12:18PM 28.0744 -80.0875 183° South 397 457 19,300 -1,920 Descending Miami Center
12:19PM 27.9700 -80.0942 184° South 386 444 17,400 -1,920 Descending Miami Center
12:20PM 27.8758 -80.1008 182° South 381 438 15,500 -1,920 Descending Miami Center
12:21PM 27.7756 -80.1050 184° South 376 433 13,600 -2,100 Descending Miami Center
12:22PM 27.6750 -80.1139 184° South 345 397 11,300 -1,800 Descending Miami Center
12:23PM 27.5872 -80.1208 182° South 327 376 10,000 -660 Descending Miami Center
12:24PM 27.5100 -80.1233 185° South 302 348 10,000  Level Miami Center
12:25PM 27.4389 -80.1306 182° South 288 331 10,000  Level Miami Center
12:26PM 27.3614 -80.1331 180° South 288 331 10,000  Level Miami Center
12:27PM 27.2739 -80.1328 162° South 288 331 10,000 -300 Level Miami Center
12:28PM 27.1992 -80.1050 156° South 288 331 9,500 -1,020 Descending Miami Center
12:29PM 27.1269 -80.0681 157° South 288 331 8,000 -1,560 Descending Miami Center
12:30PM 27.0631 -80.0383 160° South 283 326 6,400 -1,800 Descending Miami Center
12:31PM 26.9906 -80.0083 190° South 283 326 4,500 -1,200 Descending Miami Center
12:32PM 26.9086 -80.0247 215° Southwest 272 313 4,000 -300 Descending Miami Center
12:33PM 26.8514 -80.0697 184° South 266 306 4,000  Level Miami Center
12:40PM 26.6667 -80.0833 326° Northwest  Level FlightAware Approximate
12:41PM 26.7567 -80.1503 146° Southeast  Level Estimated
12:42PM 26.6667 -80.0833 326° Northwest  Level FlightAware Approximate
12:43PM 26.7567 -80.1503 146° Southeast  Level Estimated
12:44PM 26.6667 -80.0833 326° Northwest  Level FlightAware Approximate
12:45PM 26.7567 -80.1503 326° Northwest  Level Estimated